sensor_id;sensor_type;location;lat;lon;timestamp;pressure;altitude;pressure_sealevel;temperature;humidity
77590;BME280;66746;51.328;12.332;2023-12-20T12:31:25;99831.16;;;6.34;100.00
77590;BME280;66746;51.328;12.332;2023-12-20T12:34:14;99815.19;;;6.28;100.00
77590;BME280;66746;51.328;12.332;2023-12-20T12:36:58;99798.84;;;6.34;100.00
77590;BME280;66746;51.328;12.332;2023-12-20T12:39:47;99807.78;;;6.36;100.00
77590;BME280;66746;51.328;12.332;2023-12-20T12:42:45;99818.19;;;6.48;100.00
77590;BME280;66746;51.328;12.332;2023-12-20T12:45:13;99813.28;;;6.60;100.00
77590;BME280;66746;51.328;12.332;2023-12-20T13:11:00;99787.53;;;7.07;100.00
77590;BME280;66746;51.328;12.332;2023-12-20T13:18:12;99774.13;;;7.05;100.00
77590;BME280;66746;51.328;12.332;2023-12-20T13:20:40;99762.56;;;7.02;98.76
77590;BME280;66746;51.328;12.332;2023-12-20T13:23:52;99761.09;;;6.92;98.05
77590;BME280;66746;51.328;12.332;2023-12-20T13:26:24;99763.06;;;6.87;97.25
77590;BME280;66746;51.328;12.332;2023-12-20T13:29:02;99745.44;;;6.77;99.67
77590;BME280;66746;51.328;12.332;2023-12-20T13:31:53;99765.78;;;6.87;99.12
77590;BME280;66746;51.328;12.332;2023-12-20T13:35:09;99758.16;;;6.72;97.84
77590;BME280;66746;51.328;12.332;2023-12-20T13:38:18;99758.25;;;6.69;100.00
77590;BME280;66746;51.328;12.332;2023-12-20T13:41:05;99746.59;;;6.68;100.00
77590;BME280;66746;51.328;12.332;2023-12-20T13:43:47;99740.31;;;6.68;98.65
77590;BME280;66746;51.328;12.332;2023-12-20T13:47:01;99743.81;;;6.71;100.00
77590;BME280;66746;51.328;12.332;2023-12-20T13:50:15;99761.88;;;6.68;99.68
77590;BME280;66746;51.328;12.332;2023-12-20T13:52:56;99747.81;;;6.58;99.34
77590;BME280;66746;51.328;12.332;2023-12-20T13:55:50;99737.22;;;6.54;100.00
77590;BME280;66746;51.328;12.332;2023-12-20T13:59:05;99753.25;;;6.57;98.25
77590;BME280;66746;51.328;12.332;2023-12-20T14:01:50;99746.00;;;6.59;98.41
77590;BME280;66746;51.328;12.332;2023-12-20T14:04:45;99737.28;;;6.51;100.00
77590;BME280;66746;51.328;12.332;2023-12-20T14:07:13;99740.91;;;6.50;99.66
77590;BME280;66746;51.328;12.332;2023-12-20T14:10:06;99756.09;;;6.52;100.00
77590;BME280;66746;51.328;12.332;2023-12-20T14:12:37;99746.31;;;6.50;99.03
77590;BME280;66746;51.328;12.332;2023-12-20T14:15:16;99766.06;;;6.49;100.00
77590;BME280;66746;51.328;12.332;2023-12-20T14:18:01;99761.06;;;6.37;100.00
77590;BME280;66746;51.328;12.332;2023-12-20T14:20:44;99736.00;;;6.35;100.00
77590;BME280;66746;51.328;12.332;2023-12-20T14:23:29;99754.00;;;6.33;100.00
77590;BME280;66746;51.328;12.332;2023-12-20T14:26:01;99738.13;;;6.23;100.00
77590;BME280;66746;51.328;12.332;2023-12-20T14:28:30;99753.28;;;6.28;100.00
77590;BME280;66746;51.328;12.332;2023-12-20T14:31:02;99761.22;;;6.32;100.00
77590;BME280;66746;51.328;12.332;2023-12-20T14:33:48;99765.66;;;6.33;100.00
77590;BME280;66746;51.328;12.332;2023-12-20T14:36:43;99761.28;;;6.29;100.00
77590;BME280;66746;51.328;12.332;2023-12-20T14:39:12;99768.59;;;6.25;100.00
77590;BME280;66746;51.328;12.332;2023-12-20T14:41:44;99778.28;;;6.31;100.00
77590;BME280;66746;51.328;12.332;2023-12-20T14:44:11;99773.25;;;6.20;100.00
77590;BME280;66746;51.328;12.332;2023-12-20T14:46:54;99777.59;;;6.24;100.00
77590;BME280;66746;51.328;12.332;2023-12-20T14:49:33;99777.31;;;6.34;100.00
77590;BME280;66746;51.328;12.332;2023-12-20T14:52:09;99772.22;;;6.24;100.00
77590;BME280;66746;51.328;12.332;2023-12-20T14:54:45;99773.97;;;6.25;100.00
77590;BME280;66746;51.328;12.332;2023-12-20T14:57:54;99785.63;;;6.26;100.00
77590;BME280;66746;51.328;12.332;2023-12-20T15:00:53;99777.50;;;6.28;100.00
77590;BME280;66746;51.328;12.332;2023-12-20T15:03:32;99788.28;;;6.28;100.00
77590;BME280;66746;51.328;12.332;2023-12-20T15:06:12;99782.88;;;6.28;100.00
77590;BME280;66746;51.328;12.332;2023-12-20T15:08:44;99789.94;;;6.32;100.00
77590;BME280;66746;51.328;12.332;2023-12-20T15:11:16;99781.09;;;6.26;100.00
77590;BME280;66746;51.328;12.332;2023-12-20T15:13:48;99793.75;;;6.24;100.00
77590;BME280;66746;51.328;12.332;2023-12-20T15:16:47;99789.19;;;6.26;100.00
77590;BME280;66746;51.328;12.332;2023-12-20T15:20:06;99749.25;;;6.11;100.00
77590;BME280;66746;51.328;12.332;2023-12-20T15:22:56;99759.78;;;6.20;100.00
77590;BME280;66746;51.328;12.332;2023-12-20T15:28:29;99762.41;;;6.22;100.00
77590;BME280;66746;51.328;12.332;2023-12-20T15:31:00;99765.41;;;6.11;100.00
77590;BME280;66746;51.328;12.332;2023-12-20T15:34:13;99772.56;;;6.12;100.00
77590;BME280;66746;51.328;12.332;2023-12-20T15:37:14;99771.75;;;6.10;100.00
77590;BME280;66746;51.328;12.332;2023-12-20T15:47:05;99789.63;;;6.11;100.00
77590;BME280;66746;51.328;12.332;2023-12-20T15:49:46;99795.06;;;6.10;100.00
77590;BME280;66746;51.328;12.332;2023-12-20T15:52:18;99776.34;;;6.05;100.00
77590;BME280;66746;51.328;12.332;2023-12-20T15:54:47;99787.91;;;6.09;100.00
77590;BME280;66746;51.328;12.332;2023-12-20T15:59:44;99781.66;;;6.08;100.00
77590;BME280;66746;51.328;12.332;2023-12-20T16:01:15;99780.22;;;5.95;100.00
77590;BME280;66746;51.328;12.332;2023-12-20T16:05:57;99792.59;;;6.02;100.00
77590;BME280;66746;51.328;12.332;2023-12-20T16:11:45;99780.03;;;6.03;100.00
77590;BME280;66746;51.328;12.332;2023-12-20T16:14:45;99786.94;;;6.11;100.00
77590;BME280;66746;51.328;12.332;2023-12-20T16:24:56;99812.00;;;6.13;100.00
77590;BME280;66746;51.328;12.332;2023-12-20T16:31:25;99790.81;;;6.03;100.00
77590;BME280;66746;51.328;12.332;2023-12-20T16:34:23;99798.91;;;6.01;100.00
77590;BME280;66746;51.328;12.332;2023-12-20T16:48:17;99789.31;;;5.91;100.00
77590;BME280;66746;51.328;12.332;2023-12-20T16:51:26;99804.31;;;6.00;100.00
77590;BME280;66746;51.328;12.332;2023-12-20T16:54:54;99806.19;;;5.98;100.00
77590;BME280;66746;51.328;12.332;2023-12-20T16:58:59;99789.50;;;5.85;100.00
